This is the latest recevied weather packets stored in our database for station/object AD6NH. If no packets are shown the sender has not sent any weather packets the latest 10 day(s).
| Time | Temp. | Humidity | Pressure | Rain* | Wind** | Luminosity | Snow |
|---|---|---|---|---|---|---|---|
| 1777839422 | 21.67° C | 50% | 1014.5 hPa | 0 mm | - | - | - |
| 1777838822 | 20° C | 54% | 1014.6 hPa | 0 mm | - | - | - |
| 1777838222 | 20° C | 54% | 1014.7 hPa | 0 mm | - | - | - |
| 1777837622 | 20° C | 55% | 1014.9 hPa | 0 mm | - | - | - |
| 1777837023 | 19.44° C | 56% | 1015 hPa | 0 mm | - | - | - |
| 1777836422 | 19.44° C | 57% | 1015.2 hPa | 0 mm | - | - | - |
| 1777835822 | 19.44° C | 56% | 1015.2 hPa | 0 mm | - | - | - |
| 1777835222 | 18.89° C | 58% | 1015.4 hPa | 0 mm | - | - | - |
| 1777834623 | 18.33° C | 60% | 1015.5 hPa | 0 mm | - | - | - |
| 1777834022 | 18.33° C | 60% | 1015.5 hPa | 0 mm | - | - | - |
| 1777833422 | 17.78° C | 63% | 1015.6 hPa | 0 mm | - | - | - |
| 1777832823 | 17.78° C | 63% | 1015.6 hPa | 0 mm | - | - | - |
| 1777832222 | 17.78° C | 62% | 1015.6 hPa | 0 mm | - | - | - |
| 1777831622 | 17.78° C | 63% | 1015.6 hPa | 0 mm | - | - | - |
| 1777831022 | 17.78° C | 65% | 1015.6 hPa | 0 mm | - | - | - |
| 1777830422 | 17.78° C | 65% | 1015.5 hPa | 0 mm | - | - | - |
| 1777829823 | 17.78° C | 65% | 1015.4 hPa | 0 mm | - | - | - |
| 1777829222 | 17.78° C | 65% | 1015.3 hPa | 0 mm | - | - | - |
| 1777828622 | 17.78° C | 66% | 1015.2 hPa | 0 mm | - | - | - |
| 1777828022 | 17.78° C | 65% | 1015.1 hPa | 0 mm | - | - | - |
| 1777827423 | 17.22° C | 67% | 1015.1 hPa | 0 mm | - | - | - |
| 1777826822 | 17.22° C | 68% | 1015.1 hPa | 0 mm | - | - | - |
| 1777826222 | 16.67° C | 69% | 1015 hPa | 0 mm | - | - | - |
| 1777825622 | 16.67° C | 71% | 1014.9 hPa | 0 mm | - | - | - |
| 1777825022 | 16.67° C | 72% | 1015 hPa | 0 mm | - | - | - |
* Rain latest hour (hover to see other rain measurements)
** Current wind speed in m/s (hover to see current wind gust speed)